sensor_id;sensor_type;location;lat;lon;timestamp;P1;durP1;ratioP1;P2;durP2;ratioP2
76788;SDS011;65740;52.464;13.446;2023-03-01T00:01:09;5.10;;;4.20;;
76788;SDS011;65740;52.464;13.446;2023-03-01T00:03:36;4.83;;;3.87;;
76788;SDS011;65740;52.464;13.446;2023-03-01T00:06:02;4.93;;;4.30;;
76788;SDS011;65740;52.464;13.446;2023-03-01T00:08:29;4.67;;;4.27;;
76788;SDS011;65740;52.464;13.446;2023-03-01T00:11:02;4.50;;;4.10;;
76788;SDS011;65740;52.464;13.446;2023-03-01T00:13:28;4.33;;;3.93;;
76788;SDS011;65740;52.464;13.446;2023-03-01T00:15:54;5.87;;;4.07;;
76788;SDS011;65740;52.464;13.446;2023-03-01T00:18:19;5.27;;;3.93;;
76788;SDS011;65740;52.464;13.446;2023-03-01T00:20:52;4.10;;;3.70;;
76788;SDS011;65740;52.464;13.446;2023-03-01T00:23:19;4.13;;;3.73;;
76788;SDS011;65740;52.464;13.446;2023-03-01T00:25:45;6.10;;;4.50;;
76788;SDS011;65740;52.464;13.446;2023-03-01T00:28:10;6.03;;;4.30;;
76788;SDS011;65740;52.464;13.446;2023-03-01T00:30:36;5.40;;;4.43;;
76788;SDS011;65740;52.464;13.446;2023-03-01T00:33:02;4.47;;;4.07;;
76788;SDS011;65740;52.464;13.446;2023-03-01T00:35:28;4.73;;;4.03;;
76788;SDS011;65740;52.464;13.446;2023-03-01T00:37:56;5.97;;;5.37;;
76788;SDS011;65740;52.464;13.446;2023-03-01T00:40:29;4.40;;;4.00;;
76788;SDS011;65740;52.464;13.446;2023-03-01T00:42:57;4.23;;;3.83;;
76788;SDS011;65740;52.464;13.446;2023-03-01T00:45:23;4.90;;;4.50;;
76788;SDS011;65740;52.464;13.446;2023-03-01T00:47:49;4.70;;;4.30;;
76788;SDS011;65740;52.464;13.446;2023-03-01T00:50:15;5.10;;;4.60;;
76788;SDS011;65740;52.464;13.446;2023-03-01T00:52:41;4.60;;;4.20;;
76788;SDS011;65740;52.464;13.446;2023-03-01T00:55:07;5.47;;;4.03;;
76788;SDS011;65740;52.464;13.446;2023-03-01T00:57:33;5.13;;;4.63;;
76788;SDS011;65740;52.464;13.446;2023-03-01T00:59:58;5.10;;;4.60;;
76788;SDS011;65740;52.464;13.446;2023-03-01T01:02:24;5.13;;;4.63;;
76788;SDS011;65740;52.464;13.446;2023-03-01T01:04:50;5.20;;;4.70;;
76788;SDS011;65740;52.464;13.446;2023-03-01T01:07:16;6.40;;;4.53;;
76788;SDS011;65740;52.464;13.446;2023-03-01T01:09:45;6.90;;;4.33;;
76788;SDS011;65740;52.464;13.446;2023-03-01T01:12:11;4.90;;;4.40;;
76788;SDS011;65740;52.464;13.446;2023-03-01T01:14:36;6.17;;;5.00;;
76788;SDS011;65740;52.464;13.446;2023-03-01T01:17:02;4.90;;;4.40;;
76788;SDS011;65740;52.464;13.446;2023-03-01T01:19:27;5.27;;;4.77;;
76788;SDS011;65740;52.464;13.446;2023-03-01T01:21:53;5.00;;;4.50;;
76788;SDS011;65740;52.464;13.446;2023-03-01T01:24:19;5.77;;;5.27;;
76788;SDS011;65740;52.464;13.446;2023-03-01T01:26:45;5.63;;;5.13;;
76788;SDS011;65740;52.464;13.446;2023-03-01T01:29:11;5.33;;;4.60;;
76788;SDS011;65740;52.464;13.446;2023-03-01T01:31:37;5.30;;;4.80;;
76788;SDS011;65740;52.464;13.446;2023-03-01T01:34:05;4.97;;;4.50;;
76788;SDS011;65740;52.464;13.446;2023-03-01T01:36:32;6.40;;;4.90;;
76788;SDS011;65740;52.464;13.446;2023-03-01T01:38:58;5.67;;;5.03;;
76788;SDS011;65740;52.464;13.446;2023-03-01T01:41:25;4.90;;;4.50;;
76788;SDS011;65740;52.464;13.446;2023-03-01T01:46:46;5.27;;;4.77;;
76788;SDS011;65740;52.464;13.446;2023-03-01T01:51:42;5.30;;;4.80;;
76788;SDS011;65740;52.464;13.446;2023-03-01T01:54:19;5.37;;;4.87;;
76788;SDS011;65740;52.464;13.446;2023-03-01T01:56:50;5.37;;;4.87;;
76788;SDS011;65740;52.464;13.446;2023-03-01T01:59:22;5.00;;;4.50;;
76788;SDS011;65740;52.464;13.446;2023-03-01T02:01:51;4.63;;;4.23;;
76788;SDS011;65740;52.464;13.446;2023-03-01T02:04:17;5.53;;;5.03;;
76788;SDS011;65740;52.464;13.446;2023-03-01T02:06:48;5.80;;;5.30;;
76788;SDS011;65740;52.464;13.446;2023-03-01T02:09:35;5.30;;;4.57;;
76788;SDS011;65740;52.464;13.446;2023-03-01T02:12:01;5.40;;;5.00;;
76788;SDS011;65740;52.464;13.446;2023-03-01T02:14:29;5.80;;;5.20;;
76788;SDS011;65740;52.464;13.446;2023-03-01T02:16:54;5.27;;;4.70;;
76788;SDS011;65740;52.464;13.446;2023-03-01T02:19:27;5.90;;;4.97;;
76788;SDS011;65740;52.464;13.446;2023-03-01T02:22:18;5.70;;;5.20;;
76788;SDS011;65740;52.464;13.446;2023-03-01T02:27:25;5.47;;;4.93;;
76788;SDS011;65740;52.464;13.446;2023-03-01T02:29:55;5.60;;;5.10;;
76788;SDS011;65740;52.464;13.446;2023-03-01T02:32:21;5.10;;;4.60;;
76788;SDS011;65740;52.464;13.446;2023-03-01T02:34:51;5.50;;;5.00;;
76788;SDS011;65740;52.464;13.446;2023-03-01T02:37:18;5.43;;;4.90;;
76788;SDS011;65740;52.464;13.446;2023-03-01T02:39:49;5.90;;;5.13;;
76788;SDS011;65740;52.464;13.446;2023-03-01T02:42:23;5.80;;;5.30;;
76788;SDS011;65740;52.464;13.446;2023-03-01T02:44:52;5.33;;;4.87;;
76788;SDS011;65740;52.464;13.446;2023-03-01T02:47:19;5.43;;;4.87;;
76788;SDS011;65740;52.464;13.446;2023-03-01T02:49:44;6.43;;;5.73;;
76788;SDS011;65740;52.464;13.446;2023-03-01T02:57:16;5.50;;;5.00;;
76788;SDS011;65740;52.464;13.446;2023-03-01T02:59:42;5.80;;;5.10;;
76788;SDS011;65740;52.464;13.446;2023-03-01T03:02:19;5.93;;;5.30;;
76788;SDS011;65740;52.464;13.446;2023-03-01T03:05:01;6.23;;;5.63;;
76788;SDS011;65740;52.464;13.446;2023-03-01T03:07:38;6.20;;;5.60;;
76788;SDS011;65740;52.464;13.446;2023-03-01T03:10:07;5.73;;;5.23;;
76788;SDS011;65740;52.464;13.446;2023-03-01T03:12:36;5.47;;;5.07;;
76788;SDS011;65740;52.464;13.446;2023-03-01T03:15:03;5.97;;;4.90;;
76788;SDS011;65740;52.464;13.446;2023-03-01T03:17:33;5.87;;;5.30;;
76788;SDS011;65740;52.464;13.446;2023-03-01T03:20:00;5.63;;;5.13;;
76788;SDS011;65740;52.464;13.446;2023-03-01T03:22:28;6.27;;;5.67;;
76788;SDS011;65740;52.464;13.446;2023-03-01T03:24:53;5.63;;;5.13;;
76788;SDS011;65740;52.464;13.446;2023-03-01T03:27:19;6.00;;;5.50;;
76788;SDS011;65740;52.464;13.446;2023-03-01T03:29:44;7.57;;;6.07;;
76788;SDS011;65740;52.464;13.446;2023-03-01T03:32:10;5.77;;;5.27;;
76788;SDS011;65740;52.464;13.446;2023-03-01T03:34:35;6.10;;;5.60;;
76788;SDS011;65740;52.464;13.446;2023-03-01T03:37:01;6.03;;;5.43;;
76788;SDS011;65740;52.464;13.446;2023-03-01T03:39:27;6.00;;;5.50;;
76788;SDS011;65740;52.464;13.446;2023-03-01T03:41:53;5.83;;;5.30;;
76788;SDS011;65740;52.464;13.446;2023-03-01T03:44:20;6.70;;;6.10;;
76788;SDS011;65740;52.464;13.446;2023-03-01T03:46:46;5.60;;;5.10;;
76788;SDS011;65740;52.464;13.446;2023-03-01T03:49:12;6.47;;;5.90;;
76788;SDS011;65740;52.464;13.446;2023-03-01T03:51:37;6.33;;;5.73;;
76788;SDS011;65740;52.464;13.446;2023-03-01T03:54:03;7.23;;;6.00;;
76788;SDS011;65740;52.464;13.446;2023-03-01T03:56:29;6.50;;;5.90;;
76788;SDS011;65740;52.464;13.446;2023-03-01T03:58:54;6.80;;;5.40;;
76788;SDS011;65740;52.464;13.446;2023-03-01T04:01:20;6.60;;;6.00;;
76788;SDS011;65740;52.464;13.446;2023-03-01T04:03:45;6.30;;;5.70;;
76788;SDS011;65740;52.464;13.446;2023-03-01T04:06:12;6.50;;;5.50;;
76788;SDS011;65740;52.464;13.446;2023-03-01T04:08:40;5.97;;;5.47;;
76788;SDS011;65740;52.464;13.446;2023-03-01T04:11:06;6.33;;;5.80;;
76788;SDS011;65740;52.464;13.446;2023-03-01T04:13:51;5.63;;;5.17;;
76788;SDS011;65740;52.464;13.446;2023-03-01T04:16:18;6.70;;;5.90;;
76788;SDS011;65740;52.464;13.446;2023-03-01T04:18:43;6.07;;;5.57;;
76788;SDS011;65740;52.464;13.446;2023-03-01T04:21:09;6.43;;;5.90;;
76788;SDS011;65740;52.464;13.446;2023-03-01T04:23:36;6.30;;;5.70;;
76788;SDS011;65740;52.464;13.446;2023-03-01T04:26:02;6.63;;;6.03;;
76788;SDS011;65740;52.464;13.446;2023-03-01T04:28:37;6.90;;;6.23;;
76788;SDS011;65740;52.464;13.446;2023-03-01T04:31:09;7.07;;;6.47;;
76788;SDS011;65740;52.464;13.446;2023-03-01T04:33:49;5.97;;;5.37;;
76788;SDS011;65740;52.464;13.446;2023-03-01T04:36:21;6.97;;;6.37;;
76788;SDS011;65740;52.464;13.446;2023-03-01T04:38:50;6.20;;;5.60;;
76788;SDS011;65740;52.464;13.446;2023-03-01T04:41:17;6.40;;;5.80;;
76788;SDS011;65740;52.464;13.446;2023-03-01T04:43:44;5.80;;;5.30;;
76788;SDS011;65740;52.464;13.446;2023-03-01T04:46:13;7.00;;;6.40;;
76788;SDS011;65740;52.464;13.446;2023-03-01T04:48:41;6.10;;;5.60;;
76788;SDS011;65740;52.464;13.446;2023-03-01T04:51:08;6.67;;;6.07;;
76788;SDS011;65740;52.464;13.446;2023-03-01T04:53:34;8.03;;;6.23;;
76788;SDS011;65740;52.464;13.446;2023-03-01T04:56:03;5.70;;;5.20;;
76788;SDS011;65740;52.464;13.446;2023-03-01T04:58:29;6.30;;;5.70;;
76788;SDS011;65740;52.464;13.446;2023-03-01T05:00:55;6.50;;;5.90;;
76788;SDS011;65740;52.464;13.446;2023-03-01T05:03:21;6.73;;;6.00;;
76788;SDS011;65740;52.464;13.446;2023-03-01T05:05:47;7.03;;;6.33;;
76788;SDS011;65740;52.464;13.446;2023-03-01T05:08:14;7.33;;;6.73;;
76788;SDS011;65740;52.464;13.446;2023-03-01T05:10:48;6.80;;;6.20;;
76788;SDS011;65740;52.464;13.446;2023-03-01T05:13:15;5.77;;;5.27;;
76788;SDS011;65740;52.464;13.446;2023-03-01T05:15:46;6.77;;;6.17;;
76788;SDS011;65740;52.464;13.446;2023-03-01T05:18:13;6.80;;;6.20;;
76788;SDS011;65740;52.464;13.446;2023-03-01T05:20:39;6.53;;;5.97;;
76788;SDS011;65740;52.464;13.446;2023-03-01T05:23:05;6.60;;;5.73;;
76788;SDS011;65740;52.464;13.446;2023-03-01T05:25:34;6.40;;;5.80;;
76788;SDS011;65740;52.464;13.446;2023-03-01T05:28:04;7.50;;;6.90;;
76788;SDS011;65740;52.464;13.446;2023-03-01T05:30:32;6.60;;;6.00;;
76788;SDS011;65740;52.464;13.446;2023-03-01T05:32:59;7.27;;;6.60;;
76788;SDS011;65740;52.464;13.446;2023-03-01T05:35:25;6.97;;;6.37;;
76788;SDS011;65740;52.464;13.446;2023-03-01T05:37:51;7.10;;;6.50;;
76788;SDS011;65740;52.464;13.446;2023-03-01T05:40:18;6.60;;;6.10;;
76788;SDS011;65740;52.464;13.446;2023-03-01T05:42:46;6.40;;;5.83;;
76788;SDS011;65740;52.464;13.446;2023-03-01T05:45:13;6.37;;;5.87;;
76788;SDS011;65740;52.464;13.446;2023-03-01T05:47:40;7.17;;;6.57;;
76788;SDS011;65740;52.464;13.446;2023-03-01T05:50:10;7.43;;;6.83;;
76788;SDS011;65740;52.464;13.446;2023-03-01T05:52:35;7.20;;;6.50;;
76788;SDS011;65740;52.464;13.446;2023-03-01T05:55:01;6.93;;;6.33;;
76788;SDS011;65740;52.464;13.446;2023-03-01T05:57:28;7.47;;;6.77;;
76788;SDS011;65740;52.464;13.446;2023-03-01T05:59:54;7.13;;;6.47;;
76788;SDS011;65740;52.464;13.446;2023-03-01T06:02:19;6.67;;;6.10;;
76788;SDS011;65740;52.464;13.446;2023-03-01T06:04:45;6.30;;;5.80;;
76788;SDS011;65740;52.464;13.446;2023-03-01T06:07:10;6.70;;;6.10;;
76788;SDS011;65740;52.464;13.446;2023-03-01T06:09:36;7.03;;;6.33;;
76788;SDS011;65740;52.464;13.446;2023-03-01T06:12:01;6.50;;;5.90;;
76788;SDS011;65740;52.464;13.446;2023-03-01T06:14:27;6.90;;;6.20;;
76788;SDS011;65740;52.464;13.446;2023-03-01T06:16:53;7.67;;;6.97;;
76788;SDS011;65740;52.464;13.446;2023-03-01T06:19:18;7.03;;;6.33;;
76788;SDS011;65740;52.464;13.446;2023-03-01T06:21:44;7.10;;;6.50;;
76788;SDS011;65740;52.464;13.446;2023-03-01T06:24:09;6.60;;;6.10;;
76788;SDS011;65740;52.464;13.446;2023-03-01T06:26:35;6.87;;;6.27;;
76788;SDS011;65740;52.464;13.446;2023-03-01T06:29:00;6.77;;;6.17;;
76788;SDS011;65740;52.464;13.446;2023-03-01T06:31:26;6.87;;;6.27;;
76788;SDS011;65740;52.464;13.446;2023-03-01T06:33:51;7.30;;;6.60;;
76788;SDS011;65740;52.464;13.446;2023-03-01T06:36:17;7.43;;;6.73;;
76788;SDS011;65740;52.464;13.446;2023-03-01T06:38:43;6.67;;;6.07;;
76788;SDS011;65740;52.464;13.446;2023-03-01T06:41:09;7.10;;;6.50;;
76788;SDS011;65740;52.464;13.446;2023-03-01T06:43:35;6.80;;;6.20;;
76788;SDS011;65740;52.464;13.446;2023-03-01T06:46:03;6.87;;;6.17;;
76788;SDS011;65740;52.464;13.446;2023-03-01T06:48:30;6.87;;;6.27;;
76788;SDS011;65740;52.464;13.446;2023-03-01T06:50:57;6.20;;;5.60;;
76788;SDS011;65740;52.464;13.446;2023-03-01T06:53:24;7.27;;;6.57;;
76788;SDS011;65740;52.464;13.446;2023-03-01T06:55:59;6.60;;;6.00;;
76788;SDS011;65740;52.464;13.446;2023-03-01T06:58:27;6.70;;;6.10;;
76788;SDS011;65740;52.464;13.446;2023-03-01T07:00:53;6.97;;;6.20;;
76788;SDS011;65740;52.464;13.446;2023-03-01T07:03:18;7.20;;;6.60;;
76788;SDS011;65740;52.464;13.446;2023-03-01T07:05:44;6.57;;;6.07;;
76788;SDS011;65740;52.464;13.446;2023-03-01T07:08:10;6.57;;;5.97;;
76788;SDS011;65740;52.464;13.446;2023-03-01T07:10:35;6.90;;;6.30;;
76788;SDS011;65740;52.464;13.446;2023-03-01T07:13:01;7.20;;;6.60;;
76788;SDS011;65740;52.464;13.446;2023-03-01T07:15:27;7.20;;;6.60;;
76788;SDS011;65740;52.464;13.446;2023-03-01T07:17:53;7.00;;;6.40;;
76788;SDS011;65740;52.464;13.446;2023-03-01T07:20:19;6.90;;;6.30;;
76788;SDS011;65740;52.464;13.446;2023-03-01T07:22:49;7.50;;;6.80;;
76788;SDS011;65740;52.464;13.446;2023-03-01T07:25:15;7.40;;;6.80;;
76788;SDS011;65740;52.464;13.446;2023-03-01T07:27:40;7.37;;;6.77;;
76788;SDS011;65740;52.464;13.446;2023-03-01T07:30:06;7.63;;;6.93;;
76788;SDS011;65740;52.464;13.446;2023-03-01T07:32:32;7.30;;;6.50;;
76788;SDS011;65740;52.464;13.446;2023-03-01T07:34:58;7.43;;;6.73;;
76788;SDS011;65740;52.464;13.446;2023-03-01T07:37:24;7.13;;;6.53;;
76788;SDS011;65740;52.464;13.446;2023-03-01T07:39:49;7.20;;;6.50;;
76788;SDS011;65740;52.464;13.446;2023-03-01T07:42:15;6.97;;;6.43;;
76788;SDS011;65740;52.464;13.446;2023-03-01T07:44:41;7.37;;;6.70;;
76788;SDS011;65740;52.464;13.446;2023-03-01T07:47:06;7.70;;;7.00;;
76788;SDS011;65740;52.464;13.446;2023-03-01T07:49:32;7.50;;;6.90;;
76788;SDS011;65740;52.464;13.446;2023-03-01T07:51:57;7.00;;;6.40;;
76788;SDS011;65740;52.464;13.446;2023-03-01T07:54:23;8.20;;;7.30;;
76788;SDS011;65740;52.464;13.446;2023-03-01T07:56:49;7.20;;;6.23;;
76788;SDS011;65740;52.464;13.446;2023-03-01T07:59:15;8.90;;;8.00;;
76788;SDS011;65740;52.464;13.446;2023-03-01T08:01:40;11.93;;;9.27;;
76788;SDS011;65740;52.464;13.446;2023-03-01T08:04:07;11.77;;;10.37;;
76788;SDS011;65740;52.464;13.446;2023-03-01T08:06:33;13.07;;;11.50;;
76788;SDS011;65740;52.464;13.446;2023-03-01T08:09:00;14.10;;;12.40;;
76788;SDS011;65740;52.464;13.446;2023-03-01T08:11:25;13.77;;;12.37;;
76788;SDS011;65740;52.464;13.446;2023-03-01T08:13:53;14.47;;;12.50;;
76788;SDS011;65740;52.464;13.446;2023-03-01T08:16:19;13.37;;;11.80;;
76788;SDS011;65740;52.464;13.446;2023-03-01T08:18:45;12.70;;;11.33;;
76788;SDS011;65740;52.464;13.446;2023-03-01T08:21:11;13.20;;;10.90;;
76788;SDS011;65740;52.464;13.446;2023-03-01T08:23:39;13.83;;;12.43;;
76788;SDS011;65740;52.464;13.446;2023-03-01T08:28:33;13.20;;;11.83;;
